sensor_id;sensor_type;location;lat;lon;timestamp;temperature;humidity
16060;DHT22;8134;49.552;7.632;2022-10-31T08:58:39;12.90;99.90
16060;DHT22;8134;49.552;7.632;2022-10-31T09:01:05;12.90;99.90
16060;DHT22;8134;49.552;7.632;2022-10-31T09:03:30;12.90;99.90
16060;DHT22;8134;49.552;7.632;2022-10-31T09:05:57;13.00;99.90
16060;DHT22;8134;49.552;7.632;2022-10-31T09:08:23;13.10;99.90
16060;DHT22;8134;49.552;7.632;2022-10-31T09:10:49;13.20;99.90
16060;DHT22;8134;49.552;7.632;2022-10-31T09:13:18;13.30;99.90
16060;DHT22;8134;49.552;7.632;2022-10-31T09:15:45;13.40;99.90
16060;DHT22;8134;49.552;7.632;2022-10-31T09:18:11;13.50;99.90
16060;DHT22;8134;49.552;7.632;2022-10-31T09:20:39;13.50;99.90
16060;DHT22;8134;49.552;7.632;2022-10-31T09:23:06;13.60;99.90
16060;DHT22;8134;49.552;7.632;2022-10-31T09:25:32;13.60;99.90
16060;DHT22;8134;49.552;7.632;2022-10-31T09:27:58;13.60;99.90
16060;DHT22;8134;49.552;7.632;2022-10-31T09:30:24;13.70;99.90
16060;DHT22;8134;49.552;7.632;2022-10-31T09:35:45;13.80;99.90
16060;DHT22;8134;49.552;7.632;2022-10-31T09:38:11;13.90;99.90
16060;DHT22;8134;49.552;7.632;2022-10-31T09:40:38;14.00;99.90
16060;DHT22;8134;49.552;7.632;2022-10-31T09:48:36;14.20;99.90
16060;DHT22;8134;49.552;7.632;2022-10-31T09:51:04;14.20;99.90
16060;DHT22;8134;49.552;7.632;2022-10-31T09:53:34;14.20;99.90
16060;DHT22;8134;49.552;7.632;2022-10-31T09:56:00;14.30;99.90
16060;DHT22;8134;49.552;7.632;2022-10-31T09:58:27;14.40;99.90
16060;DHT22;8134;49.552;7.632;2022-10-31T10:00:54;14.50;99.90
16060;DHT22;8134;49.552;7.632;2022-10-31T10:06:23;14.60;99.90
16060;DHT22;8134;49.552;7.632;2022-10-31T10:08:49;14.70;99.90
16060;DHT22;8134;49.552;7.632;2022-10-31T10:27:23;15.10;99.90
16060;DHT22;8134;49.552;7.632;2022-10-31T10:30:02;15.20;99.90
16060;DHT22;8134;49.552;7.632;2022-10-31T10:32:28;15.20;99.90
16060;DHT22;8134;49.552;7.632;2022-10-31T10:37:41;15.40;99.90
16060;DHT22;8134;49.552;7.632;2022-10-31T10:40:11;15.40;99.90
16060;DHT22;8134;49.552;7.632;2022-10-31T10:42:38;15.40;99.90
16060;DHT22;8134;49.552;7.632;2022-10-31T10:45:22;15.50;99.90
16060;DHT22;8134;49.552;7.632;2022-10-31T10:48:10;15.50;99.90
16060;DHT22;8134;49.552;7.632;2022-10-31T10:50:40;15.60;99.90
16060;DHT22;8134;49.552;7.632;2022-10-31T10:53:30;15.60;99.90
16060;DHT22;8134;49.552;7.632;2022-10-31T10:56:04;15.70;99.90
16060;DHT22;8134;49.552;7.632;2022-10-31T10:58:32;15.80;99.90
16060;DHT22;8134;49.552;7.632;2022-10-31T11:00:57;15.80;99.90
16060;DHT22;8134;49.552;7.632;2022-10-31T11:03:23;15.90;99.90
16060;DHT22;8134;49.552;7.632;2022-10-31T11:05:52;16.00;99.90
16060;DHT22;8134;49.552;7.632;2022-10-31T11:08:29;16.10;99.90
16060;DHT22;8134;49.552;7.632;2022-10-31T11:11:02;16.10;99.90
16060;DHT22;8134;49.552;7.632;2022-10-31T11:13:28;16.20;99.90
16060;DHT22;8134;49.552;7.632;2022-10-31T11:16:04;16.30;99.90
16060;DHT22;8134;49.552;7.632;2022-10-31T11:18:34;16.40;99.90
16060;DHT22;8134;49.552;7.632;2022-10-31T11:21:02;16.40;99.90
16060;DHT22;8134;49.552;7.632;2022-10-31T11:23:29;16.40;99.90
16060;DHT22;8134;49.552;7.632;2022-10-31T11:26:01;16.40;99.90
16060;DHT22;8134;49.552;7.632;2022-10-31T11:28:28;16.50;99.90
16060;DHT22;8134;49.552;7.632;2022-10-31T11:30:58;16.50;99.90
16060;DHT22;8134;49.552;7.632;2022-10-31T11:33:26;16.50;99.90
16060;DHT22;8134;49.552;7.632;2022-10-31T11:35:53;16.50;99.90
16060;DHT22;8134;49.552;7.632;2022-10-31T11:38:19;16.60;99.90
16060;DHT22;8134;49.552;7.632;2022-10-31T11:41:19;16.60;99.90
16060;DHT22;8134;49.552;7.632;2022-10-31T11:43:37;16.60;99.90
16060;DHT22;8134;49.552;7.632;2022-10-31T11:46:10;16.70;99.90
16060;DHT22;8134;49.552;7.632;2022-10-31T11:48:36;16.70;99.90
16060;DHT22;8134;49.552;7.632;2022-10-31T11:51:02;16.80;99.90
16060;DHT22;8134;49.552;7.632;2022-10-31T11:53:29;16.80;99.90
16060;DHT22;8134;49.552;7.632;2022-10-31T11:56:05;16.80;99.90
16060;DHT22;8134;49.552;7.632;2022-10-31T11:58:31;16.80;99.90
16060;DHT22;8134;49.552;7.632;2022-10-31T12:00:57;16.80;99.90
16060;DHT22;8134;49.552;7.632;2022-10-31T12:06:05;16.70;99.90
16060;DHT22;8134;49.552;7.632;2022-10-31T12:08:34;16.70;99.90
16060;DHT22;8134;49.552;7.632;2022-10-31T12:18:44;16.80;99.90
16060;DHT22;8134;49.552;7.632;2022-10-31T12:23:52;16.80;99.90
16060;DHT22;8134;49.552;7.632;2022-10-31T12:26:22;16.80;99.90
16060;DHT22;8134;49.552;7.632;2022-10-31T12:31:41;16.80;99.90
16060;DHT22;8134;49.552;7.632;2022-10-31T12:34:30;16.80;99.90
16060;DHT22;8134;49.552;7.632;2022-10-31T12:37:00;16.80;99.90
16060;DHT22;8134;49.552;7.632;2022-10-31T12:41:59;16.90;99.90
16060;DHT22;8134;49.552;7.632;2022-10-31T12:44:40;16.90;99.90
16060;DHT22;8134;49.552;7.632;2022-10-31T12:59:57;16.90;99.90
16060;DHT22;8134;49.552;7.632;2022-10-31T13:04:55;16.90;99.90
16060;DHT22;8134;49.552;7.632;2022-10-31T13:10:00;17.00;99.90
16060;DHT22;8134;49.552;7.632;2022-10-31T13:12:27;17.00;99.90
16060;DHT22;8134;49.552;7.632;2022-10-31T13:14:55;17.00;99.90
16060;DHT22;8134;49.552;7.632;2022-10-31T13:17:27;17.10;99.90
16060;DHT22;8134;49.552;7.632;2022-10-31T13:20:05;17.10;99.90
16060;DHT22;8134;49.552;7.632;2022-10-31T13:22:36;17.10;99.90
16060;DHT22;8134;49.552;7.632;2022-10-31T13:30:16;17.40;99.90
16060;DHT22;8134;49.552;7.632;2022-10-31T13:35:16;17.60;99.90
16060;DHT22;8134;49.552;7.632;2022-10-31T13:37:45;17.60;99.90
16060;DHT22;8134;49.552;7.632;2022-10-31T13:45:16;17.60;99.90
16060;DHT22;8134;49.552;7.632;2022-10-31T13:47:42;17.40;99.90
16060;DHT22;8134;49.552;7.632;2022-10-31T13:52:40;17.10;99.90
16060;DHT22;8134;49.552;7.632;2022-10-31T13:55:07;17.00;99.90
16060;DHT22;8134;49.552;7.632;2022-10-31T13:57:52;16.90;99.90
16060;DHT22;8134;49.552;7.632;2022-10-31T14:02:48;16.80;99.90
16060;DHT22;8134;49.552;7.632;2022-10-31T14:05:25;16.70;99.90
16060;DHT22;8134;49.552;7.632;2022-10-31T14:08:03;16.70;99.90
16060;DHT22;8134;49.552;7.632;2022-10-31T14:10:32;16.60;99.90
16060;DHT22;8134;49.552;7.632;2022-10-31T14:13:05;16.50;99.90
16060;DHT22;8134;49.552;7.632;2022-10-31T14:15:38;16.40;99.90
16060;DHT22;8134;49.552;7.632;2022-10-31T14:18:21;16.40;99.90
16060;DHT22;8134;49.552;7.632;2022-10-31T14:20:47;16.30;99.90
16060;DHT22;8134;49.552;7.632;2022-10-31T14:25:50;16.20;99.90
16060;DHT22;8134;49.552;7.632;2022-10-31T14:28:20;16.20;99.90
16060;DHT22;8134;49.552;7.632;2022-10-31T14:30:53;16.10;99.90
16060;DHT22;8134;49.552;7.632;2022-10-31T14:33:19;16.10;99.90
16060;DHT22;8134;49.552;7.632;2022-10-31T14:36:00;16.10;99.90
16060;DHT22;8134;49.552;7.632;2022-10-31T14:49:21;16.70;99.90
16060;DHT22;8134;49.552;7.632;2022-10-31T14:51:50;16.70;99.90
16060;DHT22;8134;49.552;7.632;2022-10-31T14:54:23;16.80;99.90
16060;DHT22;8134;49.552;7.632;2022-10-31T14:56:53;16.80;99.90
16060;DHT22;8134;49.552;7.632;2022-10-31T14:59:31;16.80;99.90
16060;DHT22;8134;49.552;7.632;2022-10-31T15:02:41;16.80;99.90
16060;DHT22;8134;49.552;7.632;2022-10-31T15:04:46;16.80;99.90
16060;DHT22;8134;49.552;7.632;2022-10-31T15:07:16;16.80;99.90
16060;DHT22;8134;49.552;7.632;2022-10-31T15:09:42;16.80;99.90
16060;DHT22;8134;49.552;7.632;2022-10-31T15:12:22;16.80;99.90
16060;DHT22;8134;49.552;7.632;2022-10-31T15:14:49;16.80;99.90
16060;DHT22;8134;49.552;7.632;2022-10-31T15:17:17;16.70;99.90
16060;DHT22;8134;49.552;7.632;2022-10-31T15:19:45;16.70;99.90
16060;DHT22;8134;49.552;7.632;2022-10-31T15:22:13;16.70;99.90
16060;DHT22;8134;49.552;7.632;2022-10-31T15:24:40;16.60;99.90
16060;DHT22;8134;49.552;7.632;2022-10-31T15:27:15;16.50;99.90
16060;DHT22;8134;49.552;7.632;2022-10-31T15:29:51;16.40;99.90
16060;DHT22;8134;49.552;7.632;2022-10-31T15:32:18;16.40;99.90
16060;DHT22;8134;49.552;7.632;2022-10-31T15:34:44;16.30;99.90
16060;DHT22;8134;49.552;7.632;2022-10-31T15:40:17;16.10;99.90
16060;DHT22;8134;49.552;7.632;2022-10-31T15:42:44;16.00;99.90
16060;DHT22;8134;49.552;7.632;2022-10-31T15:47:36;15.70;99.90
16060;DHT22;8134;49.552;7.632;2022-10-31T15:50:03;15.60;99.90
16060;DHT22;8134;49.552;7.632;2022-10-31T15:52:31;15.60;99.90
16060;DHT22;8134;49.552;7.632;2022-10-31T15:55:05;15.40;99.90
16060;DHT22;8134;49.552;7.632;2022-10-31T15:57:44;15.40;99.90
16060;DHT22;8134;49.552;7.632;2022-10-31T16:03:01;15.10;99.90
16060;DHT22;8134;49.552;7.632;2022-10-31T16:05:31;15.00;99.90
16060;DHT22;8134;49.552;7.632;2022-10-31T16:07:59;14.80;99.90
16060;DHT22;8134;49.552;7.632;2022-10-31T16:10:25;14.50;99.90
16060;DHT22;8134;49.552;7.632;2022-10-31T16:12:50;14.30;99.90
16060;DHT22;8134;49.552;7.632;2022-10-31T16:15:17;14.20;99.90
16060;DHT22;8134;49.552;7.632;2022-10-31T16:17:45;14.00;99.90
16060;DHT22;8134;49.552;7.632;2022-10-31T16:20:25;13.90;99.90
16060;DHT22;8134;49.552;7.632;2022-10-31T16:22:51;13.80;99.90
16060;DHT22;8134;49.552;7.632;2022-10-31T16:25:20;13.70;99.90
16060;DHT22;8134;49.552;7.632;2022-10-31T16:27:53;13.80;99.90
16060;DHT22;8134;49.552;7.632;2022-10-31T16:30:30;13.80;99.90
16060;DHT22;8134;49.552;7.632;2022-10-31T16:32:56;13.80;99.90
16060;DHT22;8134;49.552;7.632;2022-10-31T16:37:52;13.60;99.90
16060;DHT22;8134;49.552;7.632;2022-10-31T16:40:18;13.50;99.90
16060;DHT22;8134;49.552;7.632;2022-10-31T16:42:44;13.50;99.90
16060;DHT22;8134;49.552;7.632;2022-10-31T16:45:20;13.50;99.90
16060;DHT22;8134;49.552;7.632;2022-10-31T16:47:45;13.50;99.90
16060;DHT22;8134;49.552;7.632;2022-10-31T16:50:12;13.40;99.90
16060;DHT22;8134;49.552;7.632;2022-10-31T16:52:38;13.40;99.90
16060;DHT22;8134;49.552;7.632;2022-10-31T16:55:04;13.40;99.90
16060;DHT22;8134;49.552;7.632;2022-10-31T16:57:30;13.40;99.90
16060;DHT22;8134;49.552;7.632;2022-10-31T16:59:56;13.40;99.90
16060;DHT22;8134;49.552;7.632;2022-10-31T17:02:22;13.50;99.90
16060;DHT22;8134;49.552;7.632;2022-10-31T17:04:47;13.50;99.90
16060;DHT22;8134;49.552;7.632;2022-10-31T17:07:13;13.50;99.90
16060;DHT22;8134;49.552;7.632;2022-10-31T17:09:38;13.50;99.90
16060;DHT22;8134;49.552;7.632;2022-10-31T17:12:04;13.70;99.90
16060;DHT22;8134;49.552;7.632;2022-10-31T17:14:30;13.50;99.90
16060;DHT22;8134;49.552;7.632;2022-10-31T17:16:56;13.50;99.90
16060;DHT22;8134;49.552;7.632;2022-10-31T17:19:21;13.40;99.90
16060;DHT22;8134;49.552;7.632;2022-10-31T17:21:47;13.30;99.90
16060;DHT22;8134;49.552;7.632;2022-10-31T17:24:13;13.30;99.90
16060;DHT22;8134;49.552;7.632;2022-10-31T17:26:39;13.30;99.90
16060;DHT22;8134;49.552;7.632;2022-10-31T17:29:04;13.30;99.90
16060;DHT22;8134;49.552;7.632;2022-10-31T17:31:31;13.20;99.90
16060;DHT22;8134;49.552;7.632;2022-10-31T17:33:57;13.20;99.90
16060;DHT22;8134;49.552;7.632;2022-10-31T17:36:23;13.10;99.90
16060;DHT22;8134;49.552;7.632;2022-10-31T17:38:48;13.20;99.90
16060;DHT22;8134;49.552;7.632;2022-10-31T17:41:14;13.10;99.90
16060;DHT22;8134;49.552;7.632;2022-10-31T17:43:39;13.20;99.90
16060;DHT22;8134;49.552;7.632;2022-10-31T17:46:05;13.00;99.90
16060;DHT22;8134;49.552;7.632;2022-10-31T17:48:34;12.90;99.90
16060;DHT22;8134;49.552;7.632;2022-10-31T17:51:01;12.90;99.90
16060;DHT22;8134;49.552;7.632;2022-10-31T17:53:27;13.00;99.90
16060;DHT22;8134;49.552;7.632;2022-10-31T17:55:53;13.00;99.90
16060;DHT22;8134;49.552;7.632;2022-10-31T17:58:18;12.90;99.90
16060;DHT22;8134;49.552;7.632;2022-10-31T18:00:44;12.90;99.90
16060;DHT22;8134;49.552;7.632;2022-10-31T18:03:10;12.90;99.90
16060;DHT22;8134;49.552;7.632;2022-10-31T18:05:35;12.80;99.90
16060;DHT22;8134;49.552;7.632;2022-10-31T18:08:01;13.00;99.90
16060;DHT22;8134;49.552;7.632;2022-10-31T18:10:26;12.90;99.90
16060;DHT22;8134;49.552;7.632;2022-10-31T18:12:52;12.90;99.90
16060;DHT22;8134;49.552;7.632;2022-10-31T18:15:17;12.90;99.90
16060;DHT22;8134;49.552;7.632;2022-10-31T18:17:44;12.90;99.90
16060;DHT22;8134;49.552;7.632;2022-10-31T18:20:10;12.90;99.90
16060;DHT22;8134;49.552;7.632;2022-10-31T18:22:36;12.80;99.90
16060;DHT22;8134;49.552;7.632;2022-10-31T18:25:02;12.80;99.90
16060;DHT22;8134;49.552;7.632;2022-10-31T18:27:28;12.80;99.90
16060;DHT22;8134;49.552;7.632;2022-10-31T18:29:53;12.70;99.90
16060;DHT22;8134;49.552;7.632;2022-10-31T18:32:19;12.60;99.90
16060;DHT22;8134;49.552;7.632;2022-10-31T18:34:44;12.50;99.90
16060;DHT22;8134;49.552;7.632;2022-10-31T18:37:10;12.50;99.90
16060;DHT22;8134;49.552;7.632;2022-10-31T18:39:35;12.40;99.90
16060;DHT22;8134;49.552;7.632;2022-10-31T18:42:01;12.30;99.90
16060;DHT22;8134;49.552;7.632;2022-10-31T18:44:26;12.20;99.90
16060;DHT22;8134;49.552;7.632;2022-10-31T18:46:52;12.10;99.90
16060;DHT22;8134;49.552;7.632;2022-10-31T18:49:18;12.10;99.90
16060;DHT22;8134;49.552;7.632;2022-10-31T18:51:47;12.10;99.90
16060;DHT22;8134;49.552;7.632;2022-10-31T18:54:13;12.10;99.90
16060;DHT22;8134;49.552;7.632;2022-10-31T18:56:38;12.10;99.90
16060;DHT22;8134;49.552;7.632;2022-10-31T18:59:04;11.90;99.90
16060;DHT22;8134;49.552;7.632;2022-10-31T19:01:29;11.80;99.90
16060;DHT22;8134;49.552;7.632;2022-10-31T19:03:55;11.80;99.90
16060;DHT22;8134;49.552;7.632;2022-10-31T19:06:22;11.70;99.90
16060;DHT22;8134;49.552;7.632;2022-10-31T19:08:48;11.70;99.90
16060;DHT22;8134;49.552;7.632;2022-10-31T19:11:13;11.70;99.90
16060;DHT22;8134;49.552;7.632;2022-10-31T19:13:39;11.60;99.90
16060;DHT22;8134;49.552;7.632;2022-10-31T19:16:09;11.60;99.90
16060;DHT22;8134;49.552;7.632;2022-10-31T19:18:36;11.60;99.90
16060;DHT22;8134;49.552;7.632;2022-10-31T19:21:08;11.50;99.90
16060;DHT22;8134;49.552;7.632;2022-10-31T19:23:34;11.60;99.90
16060;DHT22;8134;49.552;7.632;2022-10-31T19:26:00;11.60;99.90
16060;DHT22;8134;49.552;7.632;2022-10-31T19:28:28;11.60;99.90
16060;DHT22;8134;49.552;7.632;2022-10-31T19:30:54;11.50;99.90
16060;DHT22;8134;49.552;7.632;2022-10-31T19:33:19;11.50;99.90
16060;DHT22;8134;49.552;7.632;2022-10-31T19:35:45;11.50;99.90
16060;DHT22;8134;49.552;7.632;2022-10-31T19:38:10;11.60;99.90
16060;DHT22;8134;49.552;7.632;2022-10-31T19:40:36;11.60;99.90
16060;DHT22;8134;49.552;7.632;2022-10-31T19:43:01;11.50;99.90
16060;DHT22;8134;49.552;7.632;2022-10-31T19:45:27;11.50;99.90
16060;DHT22;8134;49.552;7.632;2022-10-31T19:47:52;11.50;99.90
16060;DHT22;8134;49.552;7.632;2022-10-31T19:50:18;11.50;99.90
16060;DHT22;8134;49.552;7.632;2022-10-31T19:52:43;11.40;99.90
16060;DHT22;8134;49.552;7.632;2022-10-31T19:55:09;11.40;99.90
16060;DHT22;8134;49.552;7.632;2022-10-31T19:57:34;11.50;99.90
16060;DHT22;8134;49.552;7.632;2022-10-31T20:00:02;11.40;99.90
16060;DHT22;8134;49.552;7.632;2022-10-31T20:02:27;11.50;99.90
16060;DHT22;8134;49.552;7.632;2022-10-31T20:04:53;11.70;99.90
16060;DHT22;8134;49.552;7.632;2022-10-31T20:07:19;11.60;99.90
16060;DHT22;8134;49.552;7.632;2022-10-31T20:09:44;11.60;99.90
16060;DHT22;8134;49.552;7.632;2022-10-31T20:12:10;11.60;99.90
16060;DHT22;8134;49.552;7.632;2022-10-31T20:14:36;11.50;99.90
16060;DHT22;8134;49.552;7.632;2022-10-31T20:17:01;11.50;99.90
16060;DHT22;8134;49.552;7.632;2022-10-31T20:19:27;11.50;99.90
16060;DHT22;8134;49.552;7.632;2022-10-31T20:21:52;11.60;99.90
16060;DHT22;8134;49.552;7.632;2022-10-31T20:24:18;11.80;99.90
16060;DHT22;8134;49.552;7.632;2022-10-31T20:26:43;11.80;99.90
16060;DHT22;8134;49.552;7.632;2022-10-31T20:29:12;11.80;99.90
16060;DHT22;8134;49.552;7.632;2022-10-31T20:31:40;11.90;99.90
16060;DHT22;8134;49.552;7.632;2022-10-31T20:34:05;11.90;99.90
16060;DHT22;8134;49.552;7.632;2022-10-31T20:36:31;11.80;99.90
16060;DHT22;8134;49.552;7.632;2022-10-31T20:38:57;11.80;99.90
16060;DHT22;8134;49.552;7.632;2022-10-31T20:41:22;11.90;99.90
16060;DHT22;8134;49.552;7.632;2022-10-31T20:43:48;11.80;99.90
16060;DHT22;8134;49.552;7.632;2022-10-31T20:46:18;11.80;99.90
16060;DHT22;8134;49.552;7.632;2022-10-31T20:48:44;11.80;99.90
16060;DHT22;8134;49.552;7.632;2022-10-31T20:51:13;11.70;99.90
16060;DHT22;8134;49.552;7.632;2022-10-31T20:53:39;11.70;99.90
16060;DHT22;8134;49.552;7.632;2022-10-31T20:58:31;11.60;99.90
16060;DHT22;8134;49.552;7.632;2022-10-31T21:00:56;11.50;99.90
16060;DHT22;8134;49.552;7.632;2022-10-31T21:03:22;11.40;99.90
16060;DHT22;8134;49.552;7.632;2022-10-31T21:05:55;11.30;99.90
16060;DHT22;8134;49.552;7.632;2022-10-31T21:08:21;11.30;99.90
16060;DHT22;8134;49.552;7.632;2022-10-31T21:10:47;11.30;99.90
16060;DHT22;8134;49.552;7.632;2022-10-31T21:13:13;11.50;99.90
16060;DHT22;8134;49.552;7.632;2022-10-31T21:15:38;11.50;99.90
